Time;durP1;ratioP1;P1;durP2;ratioP2;P2;SDS_P1;SDS_P2;PMS_P1;PMS_P2;Temp;Humidity;BMP_temperature;BMP_pressure;BME280_temperature;BME280_humidity;BME280_pressure;Samples;Min_cycle;Max_cycle;Signal;HPM_P1;HPM_P2
2023/07/16 00:01:04;;;;;;;;;;;;;;;25.55;58.74;99454.13;4503596;31;34177;-75
2023/07/16 00:03:33;;;;;;;;;;;;;;;25.52;59.08;99446.41;4508582;31;34572;-74
2023/07/16 00:06:02;;;;;;;;;;;;;;;25.50;59.24;99458.97;4508614;31;33966;-76
2023/07/16 00:08:31;;;;;;;;;;;;;;;25.50;59.31;99447.50;4497592;31;33535;-75
2023/07/16 00:11:06;;;;;;;;;;;;;;;25.60;59.03;99452.94;4502723;31;34922;-75
2023/07/16 00:13:36;;;;;;;;;;;;;;;25.39;59.51;99447.50;4492208;31;33816;-77
2023/07/16 00:16:07;;;;;;;;;;;;;;;25.36;58.79;99445.94;4498053;31;33875;-77
2023/07/16 00:18:35;;;;;;;;;;;;;;;25.54;58.45;99439.16;4502644;31;34778;-76
2023/07/16 00:21:10;;;;;;;;;;;;;;;25.34;59.06;99446.03;4501242;31;35153;-77
2023/07/16 00:23:39;;;;;;;;;;;;;;;25.29;58.86;99448.22;4496989;31;34699;-76
2023/07/16 00:26:09;;;;;;;;;;;;;;;25.34;58.73;99439.88;4497393;31;34350;-75
2023/07/16 00:28:39;;;;;;;;;;;;;;;25.26;58.88;99439.66;4497051;31;34294;-76
2023/07/16 00:31:12;;;;;;;;;;;;;;;25.41;58.67;99445.56;4496762;31;33278;-76
2023/07/16 00:33:41;;;;;;;;;;;;;;;25.41;58.57;99445.56;4494912;31;34027;-76
2023/07/16 00:36:10;;;;;;;;;;;;;;;25.33;58.59;99443.53;4502322;31;33894;-76
2023/07/16 00:38:40;;;;;;;;;;;;;;;25.32;58.77;99445.34;4505400;31;35004;-76
2023/07/16 00:41:15;;;;;;;;;;;;;;;24.96;60.13;99440.19;4496688;31;34673;-76
2023/07/16 00:43:45;;;;;;;;;;;;;;;24.69;60.99;99439.53;4501467;31;34457;-76
2023/07/16 00:46:14;;;;;;;;;;;;;;;25.25;59.17;99437.94;4506111;31;33935;-76
2023/07/16 00:48:44;;;;;;;;;;;;;;;25.29;58.87;99437.59;4505453;31;33889;-77
2023/07/16 00:51:13;;;;;;;;;;;;;;;25.26;58.59;99442.31;4501884;31;35861;-76
2023/07/16 00:53:43;;;;;;;;;;;;;;;25.35;58.38;99430.97;4508283;31;33175;-75
2023/07/16 00:56:12;;;;;;;;;;;;;;;25.35;58.43;99433.62;4496041;31;32763;-77
2023/07/16 00:58:46;;;;;;;;;;;;;;;25.23;58.59;99421.31;4504908;31;35205;-77
2023/07/16 01:01:17;;;;;;;;;;;;;;;25.12;59.46;99428.25;4506379;31;33979;-77
2023/07/16 01:03:46;;;;;;;;;;;;;;;25.18;59.35;99424.31;4498407;31;34881;-76
2023/07/16 01:06:21;;;;;;;;;;;;;;;25.09;59.67;99417.03;4501832;31;33914;-77
2023/07/16 01:08:52;;;;;;;;;;;;;;;24.99;59.81;99424.88;4495398;31;33756;-76
2023/07/16 01:11:23;;;;;;;;;;;;;;;25.04;59.50;99417.41;4508886;31;34245;-75
2023/07/16 01:13:55;;;;;;;;;;;;;;;25.12;59.17;99422.94;4502677;31;35129;-77
2023/07/16 01:16:25;;;;;;;;;;;;;;;24.99;59.24;99416.06;4494942;31;35463;-76
2023/07/16 01:18:54;;;;;;;;;;;;;;;24.88;59.96;99417.72;4510199;31;33152;-76
2023/07/16 01:21:24;;;;;;;;;;;;;;;24.93;60.09;99412.06;4501622;31;35385;-76
2023/07/16 01:24:02;;;;;;;;;;;;;;;24.84;60.49;99416.28;4515063;31;34711;-75
2023/07/16 01:26:39;;;;;;;;;;;;;;;24.81;60.10;99413.84;4496372;31;33307;-77
2023/07/16 01:29:33;;;;;;;;;;;;;;;24.82;60.40;99425.34;4492895;31;34043;-75
2023/07/16 01:32:04;;;;;;;;;;;;;;;24.81;59.57;99431.59;4494172;31;33834;-77
2023/07/16 01:34:34;;;;;;;;;;;;;;;24.77;60.45;99424.84;4488735;31;34249;-76
2023/07/16 01:37:07;;;;;;;;;;;;;;;24.89;60.18;99418.59;4510216;31;33406;-76
2023/07/16 01:39:36;;;;;;;;;;;;;;;24.84;60.45;99412.78;4515816;31;34479;-76
2023/07/16 01:42:05;;;;;;;;;;;;;;;24.82;60.31;99412.06;4510023;31;33937;-76
2023/07/16 01:44:38;;;;;;;;;;;;;;;24.79;60.48;99417.59;4510799;31;33894;-77
2023/07/16 01:47:09;;;;;;;;;;;;;;;24.65;60.25;99424.81;4510015;31;33304;-77
2023/07/16 01:49:38;;;;;;;;;;;;;;;24.51;61.14;99414.41;4515967;31;34525;-77
2023/07/16 01:52:08;;;;;;;;;;;;;;;24.62;60.85;99419.75;4510416;31;33938;-76
2023/07/16 01:54:40;;;;;;;;;;;;;;;24.49;61.22;99411.84;4511000;31;34811;-76
2023/07/16 01:57:09;;;;;;;;;;;;;;;24.49;60.97;99417.16;4500582;31;33577;-76
2023/07/16 01:59:43;;;;;;;;;;;;;;;24.60;60.63;99416.34;4494896;31;33632;-77
2023/07/16 02:02:13;;;;;;;;;;;;;;;24.52;61.04;99412.59;4499929;31;34281;-76
2023/07/16 02:04:46;;;;;;;;;;;;;;;24.32;61.69;99414.06;4498849;31;34335;-77
2023/07/16 02:07:15;;;;;;;;;;;;;;;24.50;60.85;99410.06;4493912;31;33541;-76
2023/07/16 02:09:52;;;;;;;;;;;;;;;24.53;60.81;99409.81;4494205;31;34298;-77
2023/07/16 02:12:27;;;;;;;;;;;;;;;24.61;60.60;99410.06;4499978;31;33964;-76
2023/07/16 02:14:57;;;;;;;;;;;;;;;24.55;60.77;99404.38;4500012;31;34021;-76
2023/07/16 02:17:27;;;;;;;;;;;;;;;24.52;60.90;99408.13;4502211;31;33149;-76
2023/07/16 02:19:56;;;;;;;;;;;;;;;24.41;61.37;99406.25;4510147;31;33155;-76
2023/07/16 02:22:28;;;;;;;;;;;;;;;24.32;62.14;99401.63;4511455;31;35341;-77
2023/07/16 02:24:58;;;;;;;;;;;;;;;24.36;61.82;99396.97;4503026;31;33653;-78
2023/07/16 02:27:28;;;;;;;;;;;;;;;24.34;62.03;99394.41;4497185;31;33042;-78
2023/07/16 02:30:00;;;;;;;;;;;;;;;24.30;61.67;99392.09;4510270;31;33944;-77
2023/07/16 02:32:32;;;;;;;;;;;;;;;24.38;61.37;99395.03;4510624;31;33398;-77
2023/07/16 02:35:03;;;;;;;;;;;;;;;24.31;61.54;99399.09;4509614;31;33832;-77
2023/07/16 02:37:32;;;;;;;;;;;;;;;24.52;61.51;99397.50;4500219;31;33129;-77
2023/07/16 02:40:02;;;;;;;;;;;;;;;24.51;61.47;99401.13;4493454;31;34253;-77
2023/07/16 02:42:31;;;;;;;;;;;;;;;24.61;61.15;99403.94;4498112;31;34860;-77
2023/07/16 02:45:03;;;;;;;;;;;;;;;24.62;61.36;99402.97;4492284;31;34235;-76
2023/07/16 02:47:35;;;;;;;;;;;;;;;24.38;61.66;99403.84;4499724;31;32803;-77
2023/07/16 02:50:04;;;;;;;;;;;;;;;24.22;62.40;99408.59;4494054;31;34197;-77
2023/07/16 02:52:34;;;;;;;;;;;;;;;24.40;61.82;99401.06;4497966;31;35110;-77
2023/07/16 02:55:04;;;;;;;;;;;;;;;24.51;61.46;99406.44;4493941;31;33878;-76
2023/07/16 02:57:34;;;;;;;;;;;;;;;24.43;62.02;99403.50;4493968;31;33673;-77
2023/07/16 03:00:10;;;;;;;;;;;;;;;24.21;62.82;99402.44;4500168;31;34321;-78
2023/07/16 03:02:39;;;;;;;;;;;;;;;24.41;62.11;99408.06;4496054;31;34117;-77
2023/07/16 03:05:08;;;;;;;;;;;;;;;24.35;62.00;99412.00;4493153;31;34381;-77
2023/07/16 03:07:37;;;;;;;;;;;;;;;24.31;62.29;99405.25;4493616;31;33266;-78
2023/07/16 03:10:09;;;;;;;;;;;;;;;24.60;61.50;99407.56;4499600;31;33862;-78
2023/07/16 03:12:40;;;;;;;;;;;;;;;24.61;61.36;99411.88;4495752;31;34986;-77
2023/07/16 03:15:11;;;;;;;;;;;;;;;24.53;61.58;99409.81;4496154;31;34085;-76
2023/07/16 03:17:41;;;;;;;;;;;;;;;24.58;61.47;99414.78;4493910;31;33370;-77
2023/07/16 03:20:10;;;;;;;;;;;;;;;24.19;62.66;99414.13;4493433;31;33704;-77
2023/07/16 03:22:45;;;;;;;;;;;;;;;24.54;61.82;99419.47;4498999;31;34395;-77
2023/07/16 03:25:15;;;;;;;;;;;;;;;24.63;61.69;99416.13;4493822;31;34221;-76
2023/07/16 03:27:47;;;;;;;;;;;;;;;24.72;61.37;99416.38;4493478;31;33727;-77
2023/07/16 03:30:17;;;;;;;;;;;;;;;24.70;61.37;99424.47;4493639;31;34039;-77
2023/07/16 03:32:49;;;;;;;;;;;;;;;24.56;61.66;99428.16;4496510;31;36723;-77
2023/07/16 03:35:22;;;;;;;;;;;;;;;24.72;61.10;99425.19;4498578;31;33583;-77
2023/07/16 03:37:55;;;;;;;;;;;;;;;24.59;61.40;99425.25;4493593;31;34324;-78
2023/07/16 03:40:27;;;;;;;;;;;;;;;24.80;61.02;99427.25;4458980;31;1105943;-77
2023/07/16 03:42:56;;;;;;;;;;;;;;;24.66;61.00;99423.84;4498298;31;33833;-76
2023/07/16 03:45:26;;;;;;;;;;;;;;;24.87;60.23;99433.78;4499276;31;34585;-78
2023/07/16 03:48:00;;;;;;;;;;;;;;;25.00;60.06;99429.22;4494054;31;32821;-77
2023/07/16 03:50:29;;;;;;;;;;;;;;;24.73;60.68;99428.69;4493084;31;34223;-78
2023/07/16 03:53:01;;;;;;;;;;;;;;;24.94;60.10;99432.34;4495217;31;35002;-76
2023/07/16 03:55:36;;;;;;;;;;;;;;;24.73;60.16;99439.28;4493666;31;33903;-77
2023/07/16 03:58:05;;;;;;;;;;;;;;;24.50;61.07;99431.28;4498652;31;32733;-78
2023/07/16 04:00:38;;;;;;;;;;;;;;;24.99;59.25;99432.00;4493263;31;33839;-77
2023/07/16 04:03:07;;;;;;;;;;;;;;;24.47;60.97;99434.97;4494075;31;33713;-78
2023/07/16 04:05:39;;;;;;;;;;;;;;;24.79;60.21;99444.13;4492902;31;33605;-77
2023/07/16 04:08:08;;;;;;;;;;;;;;;24.92;59.81;99447.53;4497048;31;33290;-77
2023/07/16 04:10:40;;;;;;;;;;;;;;;24.95;59.85;99446.47;4497958;31;33678;-77
2023/07/16 04:13:09;;;;;;;;;;;;;;;24.91;59.81;99446.69;4493198;31;35185;-77
2023/07/16 04:15:43;;;;;;;;;;;;;;;25.21;58.73;99449.78;4492997;31;34502;-77
2023/07/16 04:18:12;;;;;;;;;;;;;;;25.24;59.35;99453.03;4494053;31;32839;-77
2023/07/16 04:20:41;;;;;;;;;;;;;;;25.34;59.17;99445.19;4516761;31;33880;-77
2023/07/16 04:23:10;;;;;;;;;;;;;;;24.98;59.10;99457.66;4514357;31;33945;-77
2023/07/16 04:25:39;;;;;;;;;;;;;;;25.16;58.32;99444.81;4510833;31;34282;-77
2023/07/16 04:28:14;;;;;;;;;;;;;;;25.19;58.58;99441.09;4510885;31;34184;-78
2023/07/16 04:30:47;;;;;;;;;;;;;;;25.40;58.11;99450.03;4502397;31;33966;-78
2023/07/16 04:33:15;;;;;;;;;;;;;;;25.39;58.03;99450.97;4500041;31;34500;-78
2023/07/16 04:35:47;;;;;;;;;;;;;;;25.22;58.80;99452.31;4494611;31;34155;-78
2023/07/16 04:38:16;;;;;;;;;;;;;;;25.52;58.19;99457.03;4494925;31;33182;-76
2023/07/16 04:40:46;;;;;;;;;;;;;;;25.73;57.25;99458.94;4496339;31;34729;-78
2023/07/16 04:43:14;;;;;;;;;;;;;;;25.48;58.39;99466.19;4500346;31;33629;-78
2023/07/16 04:45:53;;;;;;;;;;;;;;;26.05;56.74;99459.06;4495892;31;34238;-77
2023/07/16 04:48:22;;;;;;;;;;;;;;;26.07;56.18;99466.87;4494682;31;33163;-77
2023/07/16 04:50:55;;;;;;;;;;;;;;;26.07;55.76;99467.75;4494796;31;34071;-77
2023/07/16 04:53:24;;;;;;;;;;;;;;;26.90;53.66;99460.06;4496047;31;34652;-77
2023/07/16 04:56:00;;;;;;;;;;;;;;;26.85;53.33;99467.59;4500310;31;34679;-74
2023/07/16 04:58:29;;;;;;;;;;;;;;;27.55;50.84;99464.22;4494749;31;34232;-77
2023/07/16 05:01:02;;;;;;;;;;;;;;;28.27;49.55;99468.50;4494689;31;33276;-74
2023/07/16 05:03:39;;;;;;;;;;;;;;;28.75;47.96;99466.81;4496101;31;33353;-76
2023/07/16 05:06:08;;;;;;;;;;;;;;;28.71;48.36;99470.78;4494501;31;34171;-75
2023/07/16 05:08:37;;;;;;;;;;;;;;;29.00;47.89;99475.22;4499933;31;32977;-76
2023/07/16 05:11:05;;;;;;;;;;;;;;;29.95;45.09;99468.84;4494367;31;34581;-75
2023/07/16 05:13:40;;;;;;;;;;;;;;;29.55;45.77;99476.22;4497506;31;34048;-76
2023/07/16 05:16:10;;;;;;;;;;;;;;;29.65;45.97;99476.16;4494753;31;34245;-75
2023/07/16 05:18:40;;;;;;;;;;;;;;;30.40;44.06;99466.19;4499918;31;34059;-76
2023/07/16 05:21:09;;;;;;;;;;;;;;;29.85;44.74;99476.94;4501231;31;34196;-76
2023/07/16 05:23:41;;;;;;;;;;;;;;;30.46;43.21;99479.94;4516042;31;34438;-77
2023/07/16 05:26:10;;;;;;;;;;;;;;;30.45;43.27;99472.91;4502512;31;34463;-76
2023/07/16 05:28:39;;;;;;;;;;;;;;;30.48;43.65;99467.25;4494545;31;33302;-76
2023/07/16 05:31:11;;;;;;;;;;;;;;;30.07;44.73;99464.12;4500363;31;34028;-77
2023/07/16 05:33:46;;;;;;;;;;;;;;;30.48;43.82;99462.72;4496312;31;34865;-77
2023/07/16 05:36:15;;;;;;;;;;;;;;;30.12;43.89;99461.84;4494065;31;34012;-77
2023/07/16 05:38:44;;;;;;;;;;;;;;;30.15;44.04;99462.38;4495309;31;33931;-76
2023/07/16 05:41:13;;;;;;;;;;;;;;;30.40;43.25;99465.34;4500076;31;34135;-76
2023/07/16 05:43:41;;;;;;;;;;;;;;;29.54;44.79;99471.84;4495579;31;34756;-75
2023/07/16 05:46:14;;;;;;;;;;;;;;;29.78;44.74;99471.34;4494453;31;33442;-75
2023/07/16 05:48:45;;;;;;;;;;;;;;;29.76;45.04;99475.97;4496390;31;33871;-76
2023/07/16 05:51:16;;;;;;;;;;;;;;;30.08;44.56;99472.00;4494587;31;34630;-75
2023/07/16 05:53:49;;;;;;;;;;;;;;;30.25;43.59;99482.87;4500005;31;33917;-75
2023/07/16 05:56:18;;;;;;;;;;;;;;;30.53;42.87;99478.34;4494426;31;34079;-76
2023/07/16 05:58:53;;;;;;;;;;;;;;;30.36;43.05;99482.69;4494445;31;32692;-76
2023/07/16 06:01:23;;;;;;;;;;;;;;;30.67;42.78;99474.28;4496048;31;33753;-76
2023/07/16 06:03:53;;;;;;;;;;;;;;;30.49;42.86;99480.47;4500108;31;33310;-75
2023/07/16 06:06:22;;;;;;;;;;;;;;;30.40;43.08;99481.41;4499684;31;34337;-76
2023/07/16 06:08:50;;;;;;;;;;;;;;;30.07;43.67;99481.03;4494359;31;33012;-76
2023/07/16 06:11:22;;;;;;;;;;;;;;;29.56;44.76;99493.94;4495797;31;34773;-75
2023/07/16 06:13:51;;;;;;;;;;;;;;;29.58;44.75;99483.09;4497636;31;34080;-77
2023/07/16 06:16:20;;;;;;;;;;;;;;;29.39;45.38;99483.16;4499536;31;35483;-77
2023/07/16 06:18:50;;;;;;;;;;;;;;;29.33;46.04;99487.25;4494091;31;34085;-76
2023/07/16 06:21:20;;;;;;;;;;;;;;;28.75;47.16;99482.84;4494321;31;33447;-75
2023/07/16 06:23:49;;;;;;;;;;;;;;;28.57;46.91;99482.72;4495997;31;33880;-76
2023/07/16 06:26:25;;;;;;;;;;;;;;;28.67;47.20;99483.53;4498489;31;34686;-76
2023/07/16 06:28:54;;;;;;;;;;;;;;;29.01;46.01;99483.09;4499354;31;33457;-75
2023/07/16 06:31:23;;;;;;;;;;;;;;;28.60;47.31;99482.41;4494291;31;34616;-77
2023/07/16 06:33:57;;;;;;;;;;;;;;;29.22;45.80;99490.13;4494413;31;34685;-77
2023/07/16 06:36:28;;;;;;;;;;;;;;;29.04;46.88;99482.78;4494412;31;33850;-77
2023/07/16 06:39:00;;;;;;;;;;;;;;;29.29;46.75;99486.72;4500063;31;34173;-75
2023/07/16 06:41:32;;;;;;;;;;;;;;;29.55;45.39;99486.03;4493135;31;33411;-75
2023/07/16 06:44:01;;;;;;;;;;;;;;;29.41;45.54;99483.88;4495967;31;34353;-76
2023/07/16 06:46:30;;;;;;;;;;;;;;;28.68;46.95;99487.06;4493669;31;34855;-75
2023/07/16 06:49:00;;;;;;;;;;;;;;;29.06;46.38;99486.19;4493575;31;33260;-76
2023/07/16 06:51:32;;;;;;;;;;;;;;;29.34;46.23;99487.12;4499602;31;34667;-75
2023/07/16 06:54:01;;;;;;;;;;;;;;;29.19;46.01;99479.69;4499694;31;33996;-75
2023/07/16 06:56:34;;;;;;;;;;;;;;;29.00;46.11;99481.41;4494155;31;34651;-76
2023/07/16 06:59:07;;;;;;;;;;;;;;;29.10;45.65;99486.75;4479390;31;32315;-76
2023/07/16 07:01:36;;;;;;;;;;;;;;;28.82;45.72;99486.62;4499178;31;33698;-76
2023/07/16 07:04:14;;;;;;;;;;;;;;;28.58;46.79;99484.38;4496003;31;33782;-76
2023/07/16 07:06:43;;;;;;;;;;;;;;;28.84;46.08;99486.50;4493864;31;33770;-75
2023/07/16 07:09:13;;;;;;;;;;;;;;;28.79;46.66;99478.91;4493914;31;33406;-76
2023/07/16 07:11:42;;;;;;;;;;;;;;;28.88;45.88;99471.88;4494922;31;34356;-76
2023/07/16 07:14:11;;;;;;;;;;;;;;;29.70;44.95;99478.44;4499607;31;34044;-75
2023/07/16 07:16:40;;;;;;;;;;;;;;;29.76;44.55;99484.00;4493620;31;34789;-75
2023/07/16 07:19:15;;;;;;;;;;;;;;;29.45;44.71;99486.09;4493659;31;34672;-77
2023/07/16 07:21:45;;;;;;;;;;;;;;;29.68;44.74;99491.09;4501928;31;33979;-77
2023/07/16 07:24:15;;;;;;;;;;;;;;;29.51;44.73;99487.34;4509843;31;34611;-76
2023/07/16 07:26:45;;;;;;;;;;;;;;;29.66;44.28;99488.56;4498498;31;33273;-76
2023/07/16 07:29:16;;;;;;;;;;;;;;;30.05;43.67;99483.00;4485406;31;32086;-77
2023/07/16 07:31:44;;;;;;;;;;;;;;;30.31;42.84;99485.81;4495853;31;33774;-76
2023/07/16 07:34:14;;;;;;;;;;;;;;;30.04;42.42;99480.50;4494677;31;33907;-77
2023/07/16 07:36:43;;;;;;;;;;;;;;;30.63;42.40;99484.44;4498803;31;34213;-76
2023/07/16 07:39:21;;;;;;;;;;;;;;;30.77;41.94;99483.06;4492791;31;33407;-77
2023/07/16 07:41:50;;;;;;;;;;;;;;;30.81;42.17;99484.44;4494424;31;34904;-77
2023/07/16 07:44:22;;;;;;;;;;;;;;;30.89;41.43;99478.34;4494314;31;35119;-76
2023/07/16 07:46:51;;;;;;;;;;;;;;;31.14;41.47;99482.84;4492153;31;33767;-77
2023/07/16 07:49:21;;;;;;;;;;;;;;;31.36;40.54;99469.91;4498851;31;32983;-78
2023/07/16 07:51:50;;;;;;;;;;;;;;;31.59;40.41;99470.22;4494281;31;34847;-77
2023/07/16 07:54:21;;;;;;;;;;;;;;;31.73;39.75;99480.34;4497481;31;33765;-75
2023/07/16 07:56:51;;;;;;;;;;;;;;;31.87;39.71;99478.88;4495199;31;34293;-77
2023/07/16 07:59:25;;;;;;;;;;;;;;;31.97;38.16;99476.09;4501285;31;32664;-77
2023/07/16 08:01:54;;;;;;;;;;;;;;;31.96;38.73;99474.41;4494895;31;35492;-77
2023/07/16 08:04:24;;;;;;;;;;;;;;;32.00;39.26;99481.16;4495908;31;34296;-76
2023/07/16 08:06:56;;;;;;;;;;;;;;;31.80;39.21;99476.03;4496175;31;33408;-77
2023/07/16 08:09:29;;;;;;;;;;;;;;;32.23;38.75;99478.66;4495513;31;33211;-77
2023/07/16 08:11:57;;;;;;;;;;;;;;;32.35;38.76;99474.66;4500426;31;34448;-76
2023/07/16 08:14:27;;;;;;;;;;;;;;;32.50;38.78;99485.63;4501197;31;34692;-78
2023/07/16 08:16:55;;;;;;;;;;;;;;;32.66;39.69;99477.56;4494199;31;34271;-76
2023/07/16 08:19:25;;;;;;;;;;;;;;;32.68;38.59;99470.19;4494634;31;33880;-77
2023/07/16 08:21:57;;;;;;;;;;;;;;;32.76;37.94;99471.19;4500149;31;34522;-77
2023/07/16 08:24:37;;;;;;;;;;;;;;;32.69;38.10;99477.25;4498890;31;34162;-76
2023/07/16 08:27:06;;;;;;;;;;;;;;;32.88;37.83;99477.91;4494156;31;33847;-78
2023/07/16 08:29:38;;;;;;;;;;;;;;;32.92;38.43;99479.25;4495540;31;33703;-77
2023/07/16 08:32:16;;;;;;;;;;;;;;;32.95;38.42;99476.22;4497795;31;34027;-77
2023/07/16 08:34:44;;;;;;;;;;;;;;;33.03;38.17;99476.25;4500806;31;34933;-76
2023/07/16 08:37:17;;;;;;;;;;;;;;;33.05;37.89;99476.88;4495199;31;33894;-77
2023/07/16 08:39:47;;;;;;;;;;;;;;;33.02;38.16;99481.75;4497632;31;33675;-76
2023/07/16 08:42:20;;;;;;;;;;;;;;;33.31;37.62;99465.91;4512378;31;34847;-76
2023/07/16 08:44:49;;;;;;;;;;;;;;;33.44;37.37;99465.41;4511559;31;34806;-77
2023/07/16 08:47:21;;;;;;;;;;;;;;;33.50;37.66;99467.37;4516651;31;34807;-76
2023/07/16 08:49:57;;;;;;;;;;;;;;;33.60;37.74;99469.91;4498037;31;33251;-77
2023/07/16 08:52:29;;;;;;;;;;;;;;;33.70;38.12;99469.69;4503778;31;34352;-76
2023/07/16 08:55:04;;;;;;;;;;;;;;;33.86;37.93;99475.00;4511256;31;33981;-77
2023/07/16 08:57:33;;;;;;;;;;;;;;;33.95;37.44;99476.63;4495692;31;34201;-77
2023/07/16 09:00:02;;;;;;;;;;;;;;;33.83;37.26;99480.72;4500577;31;34122;-76
2023/07/16 09:02:33;;;;;;;;;;;;;;;33.93;36.56;99480.50;4496267;31;33920;-76
2023/07/16 09:05:06;;;;;;;;;;;;;;;33.97;36.43;99474.59;4493831;31;35068;-77
2023/07/16 09:07:37;;;;;;;;;;;;;;;34.08;37.20;99472.53;4496369;31;33925;-76
2023/07/16 09:10:12;;;;;;;;;;;;;;;34.09;37.03;99476.91;4499977;31;33117;-76
2023/07/16 09:12:43;;;;;;;;;;;;;;;34.22;35.86;99476.34;4495245;31;34815;-78
2023/07/16 09:15:17;;;;;;;;;;;;;;;34.27;36.48;99472.09;4498387;31;33719;-76
2023/07/16 09:17:49;;;;;;;;;;;;;;;34.53;36.58;99474.44;4494580;31;35255;-77
2023/07/16 09:20:18;;;;;;;;;;;;;;;34.42;35.52;99469.47;4495665;31;33773;-77
2023/07/16 09:22:53;;;;;;;;;;;;;;;34.51;35.44;99475.63;4500213;31;34194;-77
2023/07/16 09:25:30;;;;;;;;;;;;;;;34.49;34.62;99466.87;4498678;31;34919;-77
2023/07/16 09:28:03;;;;;;;;;;;;;;;34.73;35.18;99473.97;4494527;31;34744;-76
2023/07/16 09:30:34;;;;;;;;;;;;;;;34.92;35.41;99469.94;4494347;31;32773;-78
2023/07/16 09:33:14;;;;;;;;;;;;;;;34.73;35.33;99465.88;4498206;31;33172;-76
2023/07/16 09:35:43;;;;;;;;;;;;;;;34.86;34.62;99473.34;4492508;31;32514;-77
2023/07/16 09:38:12;;;;;;;;;;;;;;;34.99;34.97;99474.41;4495067;31;33962;-76
2023/07/16 09:40:46;;;;;;;;;;;;;;;35.01;34.16;99471.50;4494620;31;33148;-78
2023/07/16 09:43:22;;;;;;;;;;;;;;;34.93;34.55;99469.72;4495698;31;33114;-77
2023/07/16 09:45:51;;;;;;;;;;;;;;;35.20;33.25;99473.69;4494166;31;33982;-77
2023/07/16 09:48:21;;;;;;;;;;;;;;;35.21;34.54;99471.84;4500133;31;33977;-78
2023/07/16 09:50:53;;;;;;;;;;;;;;;35.35;33.50;99464.75;4493598;31;33029;-77
2023/07/16 09:53:26;;;;;;;;;;;;;;;35.50;33.11;99468.31;4495933;31;34798;-76
2023/07/16 09:55:57;;;;;;;;;;;;;;;35.22;33.41;99463.56;4495929;31;33949;-77
2023/07/16 09:58:27;;;;;;;;;;;;;;;35.53;32.26;99465.22;4499807;31;33903;-76
2023/07/16 10:00:55;;;;;;;;;;;;;;;35.59;33.41;99469.03;4494821;31;33831;-77
2023/07/16 10:03:27;;;;;;;;;;;;;;;35.75;33.53;99468.88;4497938;31;33910;-77
2023/07/16 10:05:55;;;;;;;;;;;;;;;35.74;33.26;99461.81;4494573;31;33719;-77
2023/07/16 10:08:24;;;;;;;;;;;;;;;35.54;32.91;99458.78;4492819;31;33569;-77
2023/07/16 10:10:56;;;;;;;;;;;;;;;35.60;32.79;99462.66;4499698;31;32840;-76
2023/07/16 10:13:30;;;;;;;;;;;;;;;35.60;33.25;99452.69;4495996;31;34263;-77
2023/07/16 10:16:00;;;;;;;;;;;;;;;35.96;33.04;99453.75;4494087;31;33974;-77
2023/07/16 10:18:30;;;;;;;;;;;;;;;36.12;32.48;99453.53;4493722;31;33516;-77
2023/07/16 10:21:05;;;;;;;;;;;;;;;36.25;32.17;99452.84;4502726;31;33181;-78
2023/07/16 10:23:43;;;;;;;;;;;;;;;36.09;31.65;99441.25;4498156;31;34115;-78
2023/07/16 10:26:14;;;;;;;;;;;;;;;36.20;31.98;99445.31;4494165;31;33417;-76
2023/07/16 10:28:48;;;;;;;;;;;;;;;35.96;31.98;99441.09;4493860;31;33885;-78
2023/07/16 10:31:24;;;;;;;;;;;;;;;36.07;32.06;99440.56;4493555;31;34222;-77
2023/07/16 10:34:00;;;;;;;;;;;;;;;36.40;32.63;99436.56;4498908;31;34006;-76
2023/07/16 10:36:29;;;;;;;;;;;;;;;36.20;32.60;99441.78;4497714;31;33988;-76
2023/07/16 10:39:02;;;;;;;;;;;;;;;36.53;32.57;99455.59;4491833;31;33928;-77
2023/07/16 10:41:31;;;;;;;;;;;;;;;36.70;31.63;99450.78;4491611;31;32874;-76
2023/07/16 10:44:04;;;;;;;;;;;;;;;36.88;31.49;99445.72;4492220;31;33806;-77
2023/07/16 10:46:33;;;;;;;;;;;;;;;37.04;31.97;99444.56;4498109;31;34205;-77
2023/07/16 10:49:03;;;;;;;;;;;;;;;37.04;30.92;99452.69;4478228;31;32367;-77
2023/07/16 10:51:31;;;;;;;;;;;;;;;37.14;30.14;99457.81;4494737;31;32844;-76
2023/07/16 10:54:00;;;;;;;;;;;;;;;37.23;31.01;99453.88;4497313;31;33686;-77
2023/07/16 10:56:34;;;;;;;;;;;;;;;37.13;30.13;99450.69;4494948;31;34224;-79
2023/07/16 10:59:07;;;;;;;;;;;;;;;37.32;30.58;99449.97;4499408;31;35019;-80
2023/07/16 11:01:36;;;;;;;;;;;;;;;37.51;31.05;99455.72;4494226;31;33389;-78
2023/07/16 11:04:07;;;;;;;;;;;;;;;37.52;29.46;99454.66;4498927;31;33707;-77
2023/07/16 11:06:36;;;;;;;;;;;;;;;37.71;29.82;99439.56;4494033;31;34502;-77
2023/07/16 11:09:27;;;;;;;;;;;;;;;37.81;29.61;99445.44;4499227;31;34144;-78
2023/07/16 11:12:05;;;;;;;;;;;;;;;37.28;30.19;99445.16;4499708;31;33292;-77
2023/07/16 11:14:45;;;;;;;;;;;;;;;37.04;30.54;99438.34;4495558;31;33548;-78
2023/07/16 11:17:14;;;;;;;;;;;;;;;37.17;30.38;99438.47;4494001;31;34596;-76
2023/07/16 11:19:45;;;;;;;;;;;;;;;37.29;29.70;99436.87;4493910;31;33769;-78
2023/07/16 11:22:18;;;;;;;;;;;;;;;37.81;29.67;99433.78;4494163;31;33131;-78
2023/07/16 11:24:47;;;;;;;;;;;;;;;38.00;28.77;99430.31;4499132;31;34131;-77
2023/07/16 11:27:17;;;;;;;;;;;;;;;38.29;28.09;99431.00;4493557;31;33994;-77
2023/07/16 11:29:48;;;;;;;;;;;;;;;38.17;27.78;99438.91;4493656;31;34411;-78
2023/07/16 11:32:27;;;;;;;;;;;;;;;38.15;28.08;99424.72;4495217;31;35361;-78
2023/07/16 11:35:01;;;;;;;;;;;;;;;37.95;29.31;99438.19;4499410;31;33953;-77
2023/07/16 11:37:31;;;;;;;;;;;;;;;37.90;28.27;99438.81;4484452;31;32523;-78
2023/07/16 11:40:00;;;;;;;;;;;;;;;37.43;27.99;99442.31;4493280;31;34142;-78
2023/07/16 11:42:33;;;;;;;;;;;;;;;37.31;28.95;99444.78;4495263;31;33123;-77
2023/07/16 11:45:15;;;;;;;;;;;;;;;37.72;29.66;99435.81;4496117;31;34440;-76
2023/07/16 11:47:47;;;;;;;;;;;;;;;37.89;29.08;99439.00;4499335;31;34778;-76
2023/07/16 11:50:17;;;;;;;;;;;;;;;37.96;28.77;99431.72;4495044;31;33593;-76
2023/07/16 11:52:53;;;;;;;;;;;;;;;37.91;27.68;99435.06;4495549;31;33287;-77
2023/07/16 11:55:22;;;;;;;;;;;;;;;37.93;27.90;99438.38;4495533;31;33554;-78
2023/07/16 11:57:59;;;;;;;;;;;;;;;38.42;26.53;99436.41;4492398;31;34044;-76
2023/07/16 12:00:37;;;;;;;;;;;;;;;38.52;27.44;99434.19;4498665;31;34622;-78
2023/07/16 12:03:06;;;;;;;;;;;;;;;38.71;26.61;99439.78;4493448;31;34042;-76
2023/07/16 12:05:44;;;;;;;;;;;;;;;38.67;27.04;99428.53;4500530;31;33898;-78
2023/07/16 12:08:23;;;;;;;;;;;;;;;39.15;25.93;99430.19;4493983;31;33593;-78
2023/07/16 12:10:53;;;;;;;;;;;;;;;39.02;27.20;99423.72;4492857;31;34005;-76
2023/07/16 12:13:25;;;;;;;;;;;;;;;38.96;27.79;99429.16;4497798;31;32877;-76
2023/07/16 12:15:58;;;;;;;;;;;;;;;38.65;27.33;99429.78;4508926;31;34189;-77
2023/07/16 12:18:27;;;;;;;;;;;;;;;39.01;27.97;99434.78;4506974;31;33997;-76
2023/07/16 12:21:02;;;;;;;;;;;;;;;39.28;27.77;99424.69;4507683;31;33740;-78
2023/07/16 12:23:31;;;;;;;;;;;;;;;39.29;27.03;99429.09;4507290;31;33052;-76
2023/07/16 12:26:03;;;;;;;;;;;;;;;39.07;30.06;99425.78;4513098;31;34414;-77
2023/07/16 12:28:32;;;;;;;;;;;;;;;39.51;27.75;99423.38;4508340;31;34707;-76
2023/07/16 12:31:04;;;;;;;;;;;;;;;39.35;26.96;99419.25;4507483;31;34367;-77
2023/07/16 12:33:33;;;;;;;;;;;;;;;39.51;26.74;99417.94;4501264;31;33504;-77
2023/07/16 12:36:03;;;;;;;;;;;;;;;39.57;27.90;99417.09;4497877;31;33623;-76
2023/07/16 12:38:31;;;;;;;;;;;;;;;39.39;26.35;99425.97;4492686;31;33779;-77
2023/07/16 12:41:07;;;;;;;;;;;;;;;39.30;27.76;99417.19;4494402;31;33986;-76
2023/07/16 12:43:36;;;;;;;;;;;;;;;39.15;27.43;99419.31;4498185;31;33629;-75
2023/07/16 12:46:09;;;;;;;;;;;;;;;39.53;28.52;99415.84;4494397;31;33661;-78
2023/07/16 12:48:37;;;;;;;;;;;;;;;39.45;28.19;99416.94;4500620;31;34102;-77
2023/07/16 12:51:13;;;;;;;;;;;;;;;39.74;27.42;99412.00;4494939;31;33653;-77
2023/07/16 12:53:43;;;;;;;;;;;;;;;40.15;27.62;99416.19;4496301;31;33500;-78
2023/07/16 12:56:21;;;;;;;;;;;;;;;40.10;28.00;99423.09;4495132;31;34735;-77
2023/07/16 12:58:53;;;;;;;;;;;;;;;40.17;26.75;99424.94;4511011;31;34291;-76
2023/07/16 13:01:24;;;;;;;;;;;;;;;40.55;25.97;99426.75;4503041;31;34255;-78
2023/07/16 13:03:53;;;;;;;;;;;;;;;40.49;25.59;99426.59;4495422;31;32659;-76
2023/07/16 13:06:23;;;;;;;;;;;;;;;40.67;26.03;99431.31;4495522;31;33917;-77
2023/07/16 13:08:54;;;;;;;;;;;;;;;40.66;27.05;99432.31;4494643;31;34385;-78